Airfield :
LOGIN :

Register | Disclaimer

   EN    FR    IT 

 










Legend :    VFR   Marginal VFR   IFR   Intensive IFR   Very Intensive IFR
Visi :
Ceiling :
>= 8 km
>= 3000ft
5 to 8 km
1000 to 3000 ft
1500m to 5 km
500 to 1000 ft
800 to 1500m
200 to 500 ft
< 800m
< 200 ft
Symbols :   Thunderstorms  Fog  Heavy snow  Heavy precipitations  Wind > 20 kt
SIGMETs :     Misc.  Thunderstorms  Icing  Turbulence  Mountain Waves  Volcanic Ashes






- Airport Elevation : 755 ft
- IATA code : RWN


UKLR - Rivne

CURRENT METAR :
  • 290730Z 11003MPS 080V160 9999 FEW029CB SCT029 13/11 Q1013 NOSIG

EXPIRED METARs :
  • 290700Z 12002MPS 080V160 9999 FEW029CB SCT029 12/11 Q1013 NOSIG
  • 290630Z 12003MPS 080V170 9999 FEW033CB SCT033 13/10 Q1013 NOSIG
  • 290600Z 11004MPS 070V140 9999 FEW033CB SCT033 12/10 Q1013 NOSIG
  • 290530Z 10004MPS 9999 FEW033CB SCT033 12/11 Q1012 NOSIG
  • 290500Z 10003MPS 9999 FEW033CB SCT033 12/10 Q1013 NOSIG

TAF TAF UKLR
Valid from the 29 at 06:00 until the 29 at 15:00 UTC


290510Z 2906/2915 10006MPS 5000 BR BKN007 BKN013CB
TEMPO 2906/2915 2100 -SHRA BKN004 BKN013CB
PROB40
TEMPO 2909/2915 -TSRAGR



MET'MAP, your aeronautical weather chart ! - Copyright ORBIFLY December 2007 - Disclaimer

ORBIFLY MET'MAP TEAM :

Programming & Development : Alexandra Zaïnal
Concept & original design : Baudouin d'Aumeries
Assistance for programming : Marc-Olivier Méhu
Technical & hardware support : Manuel Goepfert

Contact : metmap@orbifly.com




SOURCES & CREDITS :

   NOAA